Time;durP1;ratioP1;P1;durP2;ratioP2;P2;SDS_P1;SDS_P2;PMS_P1;PMS_P2;Temp;Humidity;BMP_temperature;BMP_pressure;BME280_temperature;BME280_humidity;BME280_pressure;Samples;Min_cycle;Max_cycle;Signal;HPM_P1;HPM_P2
2022/08/29 00:01:03;;;;;;;7.33;4.40;;;;;;;;;;5111873;28;20641;-77
2022/08/29 00:03:31;;;;;;;7.77;4.47;;;;;;;;;;5105459;28;20254;-77
2022/08/29 00:05:58;;;;;;;6.70;4.60;;;;;;;;;;5103208;28;20251;-77
2022/08/29 00:08:26;;;;;;;7.10;4.63;;;;;;;;;;5091232;28;20626;-77
2022/08/29 00:10:53;;;;;;;8.63;4.50;;;;;;;;;;5090951;28;20644;-76
2022/08/29 00:13:20;;;;;;;10.67;5.33;;;;;;;;;;5107726;28;20229;-77
2022/08/29 00:15:48;;;;;;;8.73;4.87;;;;;;;;;;5110052;28;20260;-76
2022/08/29 00:18:16;;;;;;;8.00;4.13;;;;;;;;;;5111300;28;20288;-77
2022/08/29 00:20:45;;;;;;;8.90;4.50;;;;;;;;;;5097539;28;20233;-77
2022/08/29 00:23:13;;;;;;;7.67;4.47;;;;;;;;;;5107793;28;20195;-77
2022/08/29 00:25:40;;;;;;;9.10;4.50;;;;;;;;;;5090857;28;20739;-77
2022/08/29 00:28:07;;;;;;;7.20;4.43;;;;;;;;;;5100160;28;20248;-77
2022/08/29 00:30:35;;;;;;;9.10;4.27;;;;;;;;;;5111404;28;20280;-77
2022/08/29 00:33:03;;;;;;;9.77;4.67;;;;;;;;;;5105496;28;20280;-77
2022/08/29 00:35:31;;;;;;;8.13;4.30;;;;;;;;;;5111142;28;20673;-77
2022/08/29 00:38:00;;;;;;;7.30;4.47;;;;;;;;;;5107108;28;20305;-77
2022/08/29 00:40:29;;;;;;;9.00;4.57;;;;;;;;;;5110873;28;21531;-77
2022/08/29 00:42:56;;;;;;;9.23;4.93;;;;;;;;;;5105789;28;20233;-77
2022/08/29 00:45:24;;;;;;;6.70;4.33;;;;;;;;;;5092910;28;20282;-77
2022/08/29 00:47:52;;;;;;;6.90;4.47;;;;;;;;;;5090980;28;20202;-77
2022/08/29 00:50:24;;;;;;;8.80;4.27;;;;;;;;;;5090775;28;20235;-77
2022/08/29 00:52:51;;;;;;;6.90;4.33;;;;;;;;;;5090439;28;20237;-77
2022/08/29 00:55:22;;;;;;;8.50;4.70;;;;;;;;;;5090592;28;20317;-77
2022/08/29 00:57:52;;;;;;;8.27;4.23;;;;;;;;;;5096952;28;20733;-77
2022/08/29 01:00:19;;;;;;;8.03;4.43;;;;;;;;;;5090327;28;20206;-77
2022/08/29 01:02:47;;;;;;;7.27;4.53;;;;;;;;;;5090325;28;20198;-77
2022/08/29 01:05:16;;;;;;;8.23;4.03;;;;;;;;;;5076466;28;20203;-77
2022/08/29 01:07:44;;;;;;;8.67;4.67;;;;;;;;;;5070123;28;20214;-77
2022/08/29 01:12:14;;;;;;;7.27;4.00;;;;;;;;;;5077597;28;20276;-77
2022/08/29 01:13:00;;;;;;;6.77;4.30;;;;;;;;;;5110540;28;20202;-77
2022/08/29 01:15:29;;;;;;;6.40;3.83;;;;;;;;;;5110640;28;20308;-77
2022/08/29 01:17:57;;;;;;;7.23;4.47;;;;;;;;;;5105204;28;20200;-77
2022/08/29 01:20:28;;;;;;;7.63;4.27;;;;;;;;;;5111374;28;20259;-77
2022/08/29 01:23:00;;;;;;;8.33;4.37;;;;;;;;;;5094254;28;20285;-77
2022/08/29 01:25:31;;;;;;;7.57;4.17;;;;;;;;;;5090860;28;20195;-77
2022/08/29 01:28:01;;;;;;;6.10;4.00;;;;;;;;;;5094157;28;20214;-77
2022/08/29 01:30:28;;;;;;;7.50;4.67;;;;;;;;;;5093542;28;20218;-77
2022/08/29 01:32:56;;;;;;;6.43;4.40;;;;;;;;;;5084795;28;20285;-77
2022/08/29 01:35:27;;;;;;;7.40;4.23;;;;;;;;;;5092942;28;20230;-77
2022/08/29 01:37:54;;;;;;;5.57;4.20;;;;;;;;;;5094196;28;20198;-77
2022/08/29 01:40:21;;;;;;;9.23;4.23;;;;;;;;;;5113086;28;20626;-77
2022/08/29 01:42:50;;;;;;;7.83;4.10;;;;;;;;;;5109141;28;20241;-76
2022/08/29 01:45:18;;;;;;;9.70;4.30;;;;;;;;;;5103502;28;20281;-77
2022/08/29 01:47:45;;;;;;;6.23;4.30;;;;;;;;;;5104849;28;20210;-76
2022/08/29 01:50:14;;;;;;;7.87;4.43;;;;;;;;;;5102062;28;20316;-77
2022/08/29 01:52:41;;;;;;;7.00;4.07;;;;;;;;;;5113662;28;20813;-77
2022/08/29 01:55:09;;;;;;;8.50;4.00;;;;;;;;;;5100654;28;20315;-77
2022/08/29 01:57:37;;;;;;;8.23;4.47;;;;;;;;;;5092548;28;20264;-77
2022/08/29 02:00:08;;;;;;;7.17;4.23;;;;;;;;;;5108440;28;20660;-77
2022/08/29 02:02:37;;;;;;;9.03;4.67;;;;;;;;;;5113815;28;20198;-76
2022/08/29 02:05:04;;;;;;;7.10;3.90;;;;;;;;;;5114026;28;20704;-77
2022/08/29 02:07:32;;;;;;;8.77;4.47;;;;;;;;;;5113779;28;20231;-76
2022/08/29 02:09:59;;;;;;;6.00;4.30;;;;;;;;;;5103056;28;20202;-77
2022/08/29 02:12:26;;;;;;;10.23;4.50;;;;;;;;;;5080520;28;20290;-76
2022/08/29 02:14:53;;;;;;;7.03;4.10;;;;;;;;;;5093247;28;20314;-77
2022/08/29 02:17:23;;;;;;;7.70;4.20;;;;;;;;;;5093736;28;20271;-77
2022/08/29 02:19:50;;;;;;;7.63;4.20;;;;;;;;;;5109761;28;20209;-77
2022/08/29 02:22:18;;;;;;;8.03;4.43;;;;;;;;;;5080912;28;20237;-76
2022/08/29 02:24:45;;;;;;;6.10;4.00;;;;;;;;;;5112486;28;20228;-77
2022/08/29 02:27:12;;;;;;;7.60;4.10;;;;;;;;;;5093363;28;20293;-76
2022/08/29 02:29:40;;;;;;;7.97;4.30;;;;;;;;;;5092807;28;20244;-77
2022/08/29 02:32:08;;;;;;;7.87;4.20;;;;;;;;;;5078114;28;20279;-77
2022/08/29 02:34:37;;;;;;;5.93;4.10;;;;;;;;;;5097760;28;20214;-77
2022/08/29 02:37:04;;;;;;;5.97;4.40;;;;;;;;;;5101360;28;20235;-78
2022/08/29 02:39:32;;;;;;;6.57;4.17;;;;;;;;;;5111211;28;20229;-77
2022/08/29 02:41:59;;;;;;;5.70;4.27;;;;;;;;;;5091989;28;20283;-77
2022/08/29 02:44:26;;;;;;;7.57;4.37;;;;;;;;;;5098650;28;20972;-76
2022/08/29 02:46:53;;;;;;;7.03;3.97;;;;;;;;;;5101450;28;20290;-77
2022/08/29 02:49:21;;;;;;;6.37;4.10;;;;;;;;;;5104667;28;20194;-77
2022/08/29 02:51:50;;;;;;;7.80;3.90;;;;;;;;;;5092690;28;20202;-78
2022/08/29 02:54:17;;;;;;;6.83;4.03;;;;;;;;;;5091868;28;20214;-77
2022/08/29 02:56:44;;;;;;;7.10;3.83;;;;;;;;;;5098800;28;20304;-77
2022/08/29 02:59:12;;;;;;;6.67;3.90;;;;;;;;;;5113246;28;20604;-77
2022/08/29 03:01:40;;;;;;;7.07;3.80;;;;;;;;;;5098846;28;20242;-77
2022/08/29 03:04:07;;;;;;;7.80;4.13;;;;;;;;;;5102155;28;20237;-77
2022/08/29 03:06:34;;;;;;;7.00;4.07;;;;;;;;;;5109654;28;20237;-77
2022/08/29 03:09:03;;;;;;;8.57;4.20;;;;;;;;;;5092164;28;20700;-77
2022/08/29 03:11:30;;;;;;;6.67;3.93;;;;;;;;;;5091939;28;20543;-77
2022/08/29 03:13:57;;;;;;;8.27;4.20;;;;;;;;;;5091796;28;20289;-77
2022/08/29 03:16:25;;;;;;;6.07;3.63;;;;;;;;;;5095912;28;20305;-77
2022/08/29 03:18:52;;;;;;;6.90;3.80;;;;;;;;;;5091912;28;20624;-77
2022/08/29 03:21:20;;;;;;;5.97;4.07;;;;;;;;;;5104613;28;20237;-77
2022/08/29 03:23:47;;;;;;;6.30;3.73;;;;;;;;;;5092276;28;20198;-77
2022/08/29 03:26:16;;;;;;;6.13;3.80;;;;;;;;;;5091811;28;20222;-76
2022/08/29 03:28:43;;;;;;;7.47;4.20;;;;;;;;;;5091804;28;20226;-77
2022/08/29 03:31:10;;;;;;;6.13;3.53;;;;;;;;;;5092803;28;20199;-76
2022/08/29 03:33:38;;;;;;;8.43;3.83;;;;;;;;;;5087469;28;20237;-77
2022/08/29 03:36:06;;;;;;;6.67;3.73;;;;;;;;;;5093278;28;20305;-77
2022/08/29 03:38:34;;;;;;;7.37;3.90;;;;;;;;;;5097799;28;20222;-77
2022/08/29 03:41:02;;;;;;;7.17;3.90;;;;;;;;;;5095995;28;20620;-77
2022/08/29 03:43:31;;;;;;;5.17;3.57;;;;;;;;;;5099005;28;20285;-77
2022/08/29 03:45:58;;;;;;;6.23;3.87;;;;;;;;;;5108617;28;20277;-77
2022/08/29 03:48:25;;;;;;;5.23;3.70;;;;;;;;;;5107023;28;20281;-77
2022/08/29 03:50:52;;;;;;;7.00;3.73;;;;;;;;;;5091721;28;20627;-77
2022/08/29 03:53:19;;;;;;;8.30;3.93;;;;;;;;;;5095927;28;20222;-77
2022/08/29 03:55:47;;;;;;;5.87;3.83;;;;;;;;;;5094135;28;20226;-77
2022/08/29 03:58:14;;;;;;;6.73;3.73;;;;;;;;;;5091050;28;20254;-77
2022/08/29 04:00:43;;;;;;;5.40;3.63;;;;;;;;;;5091674;28;20233;-77
2022/08/29 04:03:10;;;;;;;6.53;3.63;;;;;;;;;;5096417;28;20195;-77
2022/08/29 04:05:38;;;;;;;5.03;3.63;;;;;;;;;;5102391;28;20198;-77
2022/08/29 04:08:06;;;;;;;6.87;3.43;;;;;;;;;;5111475;28;20310;-77
2022/08/29 04:10:36;;;;;;;7.83;3.53;;;;;;;;;;5109798;28;20211;-77
2022/08/29 04:13:03;;;;;;;6.40;3.37;;;;;;;;;;5111611;28;20208;-77
2022/08/29 04:15:32;;;;;;;7.00;3.43;;;;;;;;;;5092396;28;20217;-77
2022/08/29 04:18:02;;;;;;;7.53;3.43;;;;;;;;;;5091128;28;20642;-77
2022/08/29 04:20:31;;;;;;;7.07;3.77;;;;;;;;;;5099691;28;20232;-77
2022/08/29 04:22:59;;;;;;;5.50;3.77;;;;;;;;;;5097410;28;20202;-77
2022/08/29 04:25:27;;;;;;;5.03;3.30;;;;;;;;;;5111019;28;20228;-77
2022/08/29 04:27:55;;;;;;;6.53;3.60;;;;;;;;;;5111369;28;20229;-77
2022/08/29 04:30:23;;;;;;;6.10;3.63;;;;;;;;;;5085872;28;20728;-76
2022/08/29 04:32:51;;;;;;;7.20;3.43;;;;;;;;;;5102415;28;20230;-77
2022/08/29 04:35:20;;;;;;;5.47;3.27;;;;;;;;;;5097480;28;20862;-77
2022/08/29 04:37:48;;;;;;;6.13;3.20;;;;;;;;;;5090479;28;20198;-77
2022/08/29 04:40:16;;;;;;;4.67;3.50;;;;;;;;;;5097421;28;20631;-77
2022/08/29 04:42:45;;;;;;;4.97;3.20;;;;;;;;;;5109173;28;20221;-77
2022/08/29 04:45:13;;;;;;;5.33;3.13;;;;;;;;;;5111171;28;20262;-76
2022/08/29 04:47:41;;;;;;;5.37;3.47;;;;;;;;;;5092970;28;20198;-77
2022/08/29 04:50:10;;;;;;;5.60;3.13;;;;;;;;;;5111204;28;20285;-77
2022/08/29 04:52:39;;;;;;;4.27;3.30;;;;;;;;;;5105592;28;20230;-77
2022/08/29 04:55:07;;;;;;;8.63;3.77;;;;;;;;;;5090104;28;20238;-77
2022/08/29 04:57:37;;;;;;;6.23;3.67;;;;;;;;;;5093715;28;20218;-77
2022/08/29 05:00:05;;;;;;;6.93;3.50;;;;;;;;;;5110603;28;20201;-77
2022/08/29 05:02:32;;;;;;;10.00;3.70;;;;;;;;;;5102901;28;20202;-79
2022/08/29 05:04:59;;;;;;;5.90;3.17;;;;;;;;;;5094840;28;20238;-80
2022/08/29 05:07:27;;;;;;;4.37;3.20;;;;;;;;;;5107127;28;20273;-79
2022/08/29 05:09:59;;;;;;;5.43;3.37;;;;;;;;;;5105174;28;20198;-79
2022/08/29 05:12:26;;;;;;;5.00;3.27;;;;;;;;;;5100901;28;20199;-78
2022/08/29 05:14:53;;;;;;;8.03;3.67;;;;;;;;;;5107816;28;20276;-79
2022/08/29 05:17:21;;;;;;;6.17;3.33;;;;;;;;;;5115608;28;20257;-77
2022/08/29 05:19:48;;;;;;;5.83;3.10;;;;;;;;;;5115065;28;20285;-77
2022/08/29 05:22:16;;;;;;;4.33;3.10;;;;;;;;;;5115214;28;20233;-78
2022/08/29 05:24:43;;;;;;;8.90;4.10;;;;;;;;;;5101842;28;20301;-78
2022/08/29 05:27:13;;;;;;;6.03;3.47;;;;;;;;;;5095088;28;20191;-78
2022/08/29 05:29:40;;;;;;;5.50;3.50;;;;;;;;;;5096578;28;20194;-78
2022/08/29 05:32:11;;;;;;;7.40;3.50;;;;;;;;;;5103514;28;20230;-79
2022/08/29 05:34:39;;;;;;;4.83;3.03;;;;;;;;;;5086879;28;20594;-78
2022/08/29 05:37:07;;;;;;;5.60;3.07;;;;;;;;;;5100960;28;20282;-78
2022/08/29 05:39:36;;;;;;;7.37;3.60;;;;;;;;;;5090425;28;20220;-78
2022/08/29 05:42:03;;;;;;;6.07;3.10;;;;;;;;;;5103869;28;20258;-79
2022/08/29 05:44:34;;;;;;;7.67;3.60;;;;;;;;;;5094731;28;20198;-79
2022/08/29 05:47:02;;;;;;;7.57;3.37;;;;;;;;;;5100115;28;20202;-79
2022/08/29 05:49:29;;;;;;;7.30;2.97;;;;;;;;;;5098355;28;20198;-78
2022/08/29 05:51:59;;;;;;;5.00;2.90;;;;;;;;;;5089353;28;20292;-77
2022/08/29 05:54:26;;;;;;;6.90;3.40;;;;;;;;;;5079852;28;20578;-77
2022/08/29 05:56:54;;;;;;;4.77;2.90;;;;;;;;;;5103598;28;20304;-78
2022/08/29 05:59:21;;;;;;;5.47;3.03;;;;;;;;;;5113810;28;20646;-78
2022/08/29 06:01:50;;;;;;;9.37;3.70;;;;;;;;;;5103663;28;20227;-78
2022/08/29 06:04:17;;;;;;;7.90;3.20;;;;;;;;;;5096969;28;21078;-78
2022/08/29 06:06:44;;;;;;;7.33;3.20;;;;;;;;;;5110990;28;20277;-77
2022/08/29 06:09:12;;;;;;;4.80;2.70;;;;;;;;;;5094854;28;20285;-77
2022/08/29 06:11:40;;;;;;;5.27;3.10;;;;;;;;;;5106097;28;20289;-77
2022/08/29 06:14:07;;;;;;;5.53;3.03;;;;;;;;;;5114880;28;20688;-78
2022/08/29 06:16:34;;;;;;;4.77;2.87;;;;;;;;;;5114395;28;20312;-77
2022/08/29 06:19:03;;;;;;;5.33;2.70;;;;;;;;;;5101767;28;20635;-78
2022/08/29 06:21:30;;;;;;;4.50;2.90;;;;;;;;;;5106820;28;20253;-78
2022/08/29 06:23:58;;;;;;;4.93;2.83;;;;;;;;;;5093442;28;20203;-78
2022/08/29 06:26:25;;;;;;;4.43;2.60;;;;;;;;;;5094163;28;20233;-78
2022/08/29 06:28:52;;;;;;;8.27;3.00;;;;;;;;;;5093940;28;20292;-78
2022/08/29 06:31:21;;;;;;;5.28;2.60;;;;;;;;;;5093116;28;20285;-78
2022/08/29 06:33:51;;;;;;;4.15;2.83;;;;;;;;;;5082203;28;20251;-78
2022/08/29 06:36:20;;;;;;;4.22;2.70;;;;;;;;;;5099867;28;20225;-78
2022/08/29 06:38:47;;;;;;;6.40;2.80;;;;;;;;;;5073575;28;20238;-78
2022/08/29 06:41:16;;;;;;;5.32;2.63;;;;;;;;;;5073019;28;20300;-78
2022/08/29 06:43:46;;;;;;;5.70;2.80;;;;;;;;;;5098573;28;20276;-78
2022/08/29 06:46:20;;;;;;;5.40;2.47;;;;;;;;;;5095820;28;20614;-78
2022/08/29 06:48:47;;;;;;;6.45;2.50;;;;;;;;;;5112596;28;20236;-78
2022/08/29 06:51:14;;;;;;;6.32;2.58;;;;;;;;;;5098454;28;20289;-78
2022/08/29 06:53:43;;;;;;;5.25;2.40;;;;;;;;;;5092943;28;20271;-78
2022/08/29 06:56:12;;;;;;;5.10;2.40;;;;;;;;;;5109047;28;20253;-79
2022/08/29 06:58:39;;;;;;;3.03;2.33;;;;;;;;;;5098795;28;20301;-79
2022/08/29 07:01:07;;;;;;;4.30;2.47;;;;;;;;;;5089264;28;20230;-79
2022/08/29 07:03:34;;;;;;;3.75;2.22;;;;;;;;;;5072366;28;20573;-79
2022/08/29 07:06:02;;;;;;;4.13;2.35;;;;;;;;;;5104149;28;20225;-79
2022/08/29 07:08:29;;;;;;;6.10;2.15;;;;;;;;;;5108639;28;20274;-79
2022/08/29 07:10:57;;;;;;;5.13;2.55;;;;;;;;;;5091963;28;20286;-79
2022/08/29 07:13:25;;;;;;;5.18;2.30;;;;;;;;;;5102345;28;20285;-79
2022/08/29 07:15:52;;;;;;;4.10;2.30;;;;;;;;;;5095381;28;20198;-80
2022/08/29 07:18:20;;;;;;;4.50;2.20;;;;;;;;;;5102831;28;20708;-79
2022/08/29 07:20:47;;;;;;;6.88;2.38;;;;;;;;;;5107631;28;20380;-79
2022/08/29 07:23:17;;;;;;;4.78;2.25;;;;;;;;;;5094461;28;20248;-78
2022/08/29 07:25:45;;;;;;;3.72;2.00;;;;;;;;;;5097300;28;20289;-80
2022/08/29 07:28:14;;;;;;;5.43;2.38;;;;;;;;;;5078616;28;20237;-80
2022/08/29 07:30:41;;;;;;;5.45;2.33;;;;;;;;;;5084271;28;20198;-77
2022/08/29 07:33:08;;;;;;;5.80;2.50;;;;;;;;;;5101970;28;20227;-79
2022/08/29 07:35:36;;;;;;;4.10;2.30;;;;;;;;;;5096414;28;20230;-79
2022/08/29 07:38:03;;;;;;;4.32;2.35;;;;;;;;;;5091104;28;20319;-79
2022/08/29 07:40:30;;;;;;;5.07;2.25;;;;;;;;;;5100149;28;20261;-78
2022/08/29 07:42:57;;;;;;;5.40;2.10;;;;;;;;;;5092367;28;20201;-79
2022/08/29 07:45:26;;;;;;;4.15;2.28;;;;;;;;;;5093471;28;20226;-79
2022/08/29 07:47:53;;;;;;;3.88;2.08;;;;;;;;;;5088611;28;20627;-79
2022/08/29 07:50:20;;;;;;;3.47;1.83;;;;;;;;;;5096208;28;20206;-79
2022/08/29 07:52:48;;;;;;;5.45;2.20;;;;;;;;;;5091897;28;20222;-79
2022/08/29 07:55:15;;;;;;;5.93;2.08;;;;;;;;;;5095594;28;20202;-79
2022/08/29 07:57:45;;;;;;;5.13;2.80;;;;;;;;;;5085463;28;20313;-79
2022/08/29 08:00:12;;;;;;;2.67;2.35;;;;;;;;;;5105531;28;20271;-79
2022/08/29 08:02:41;;;;;;;3.90;2.10;;;;;;;;;;5098040;28;20589;-79
2022/08/29 08:05:08;;;;;;;4.28;2.22;;;;;;;;;;5099422;28;20285;-79
2022/08/29 08:07:36;;;;;;;5.45;2.40;;;;;;;;;;5097892;28;21050;-79
2022/08/29 08:10:04;;;;;;;5.07;2.53;;;;;;;;;;5087190;28;20773;-79
2022/08/29 08:12:31;;;;;;;4.28;2.25;;;;;;;;;;5088770;28;20317;-79
2022/08/29 08:14:58;;;;;;;4.55;2.00;;;;;;;;;;5084355;28;20207;-79
2022/08/29 08:17:25;;;;;;;5.75;2.17;;;;;;;;;;5082611;28;20258;-79
2022/08/29 08:19:54;;;;;;;4.38;2.55;;;;;;;;;;5093521;28;20210;-79
2022/08/29 08:22:21;;;;;;;3.33;2.30;;;;;;;;;;5088994;28;20202;-79
2022/08/29 08:24:49;;;;;;;3.63;2.25;;;;;;;;;;5084093;28;20284;-79
2022/08/29 08:27:16;;;;;;;4.15;2.40;;;;;;;;;;5082813;28;20226;-79
2022/08/29 08:29:43;;;;;;;4.53;2.35;;;;;;;;;;5092795;28;20215;-79
2022/08/29 08:32:10;;;;;;;3.28;2.35;;;;;;;;;;5084343;28;20722;-79
2022/08/29 08:34:38;;;;;;;5.90;2.55;;;;;;;;;;5098906;28;20285;-79
2022/08/29 08:37:08;;;;;;;5.93;2.60;;;;;;;;;;5099458;28;20276;-79
2022/08/29 08:39:35;;;;;;;3.83;2.40;;;;;;;;;;5102286;28;20277;-79
2022/08/29 08:42:05;;;;;;;5.38;2.40;;;;;;;;;;5103794;28;20286;-78
2022/08/29 08:44:44;;;;;;;3.38;2.33;;;;;;;;;;5096409;28;20693;-79
2022/08/29 08:47:14;;;;;;;3.53;2.35;;;;;;;;;;5101796;28;20230;-79
2022/08/29 08:49:48;;;;;;;6.07;2.60;;;;;;;;;;5092927;28;20205;-79
2022/08/29 08:52:19;;;;;;;4.53;2.53;;;;;;;;;;5075089;28;20674;-79
2022/08/29 08:54:50;;;;;;;3.22;2.13;;;;;;;;;;5090037;28;20245;-79
2022/08/29 08:57:19;;;;;;;3.47;2.40;;;;;;;;;;5088494;28;20214;-79
2022/08/29 08:59:47;;;;;;;4.60;2.40;;;;;;;;;;5095116;28;20279;-78
2022/08/29 09:02:26;;;;;;;5.93;2.58;;;;;;;;;;5104568;28;20249;-78
2022/08/29 09:04:57;;;;;;;5.85;2.70;;;;;;;;;;5106590;28;20674;-79
2022/08/29 09:07:38;;;;;;;3.00;2.50;;;;;;;;;;5080242;28;20226;-78
2022/08/29 09:10:11;;;;;;;4.72;2.70;;;;;;;;;;5095105;28;20285;-79
2022/08/29 09:12:47;;;;;;;6.10;2.90;;;;;;;;;;5105211;28;20277;-78
2022/08/29 09:15:15;;;;;;;8.93;2.60;;;;;;;;;;5084690;28;20248;-79
2022/08/29 09:17:44;;;;;;;5.93;2.60;;;;;;;;;;5099299;28;20308;-78
2022/08/29 09:20:13;;;;;;;4.15;2.88;;;;;;;;;;5084105;28;20648;-78
2022/08/29 09:22:43;;;;;;;3.22;2.60;;;;;;;;;;5094839;28;20281;-79
2022/08/29 09:25:12;;;;;;;4.95;2.92;;;;;;;;;;5097743;28;20206;-78
2022/08/29 09:27:39;;;;;;;5.95;2.92;;;;;;;;;;5096782;28;20226;-79
2022/08/29 09:30:09;;;;;;;5.13;2.88;;;;;;;;;;5109680;28;20234;-79
2022/08/29 09:32:51;;;;;;;4.85;2.80;;;;;;;;;;5104621;28;20654;-79
2022/08/29 09:35:23;;;;;;;4.43;2.63;;;;;;;;;;5110064;28;20284;-78
2022/08/29 09:37:58;;;;;;;4.38;2.58;;;;;;;;;;5106327;28;20608;-79
2022/08/29 09:40:40;;;;;;;6.00;2.53;;;;;;;;;;5100225;28;20308;-79
2022/08/29 09:43:07;;;;;;;3.20;2.70;;;;;;;;;;5098027;28;20193;-79
2022/08/29 09:45:35;;;;;;;4.53;3.13;;;;;;;;;;5103054;28;20229;-79
2022/08/29 09:48:09;;;;;;;5.78;2.80;;;;;;;;;;5103069;28;20238;-78
2022/08/29 09:50:37;;;;;;;8.38;3.00;;;;;;;;;;5104952;28;20204;-79
2022/08/29 09:53:06;;;;;;;4.65;2.70;;;;;;;;;;5096962;28;20233;-79
2022/08/29 09:55:34;;;;;;;4.80;2.80;;;;;;;;;;5096705;28;20241;-79
2022/08/29 09:58:03;;;;;;;5.70;3.00;;;;;;;;;;5083708;28;20317;-79
2022/08/29 10:00:32;;;;;;;10.35;2.90;;;;;;;;;;5099540;28;20225;-79
2022/08/29 10:03:00;;;;;;;4.28;2.70;;;;;;;;;;5091534;28;20199;-79
2022/08/29 10:05:33;;;;;;;7.10;3.10;;;;;;;;;;5103448;28;20198;-79
2022/08/29 10:08:02;;;;;;;3.92;2.88;;;;;;;;;;5104537;28;20197;-79
2022/08/29 10:10:33;;;;;;;5.32;3.05;;;;;;;;;;5091022;28;20231;-79
2022/08/29 10:13:03;;;;;;;8.30;3.40;;;;;;;;;;5090767;28;20234;-78
2022/08/29 10:15:36;;;;;;;3.65;2.72;;;;;;;;;;5098943;28;20242;-79
2022/08/29 10:18:23;;;;;;;4.55;2.75;;;;;;;;;;5093601;28;20777;-79
2022/08/29 10:20:57;;;;;;;4.88;3.03;;;;;;;;;;5102537;28;20724;-79
2022/08/29 10:23:29;;;;;;;3.38;2.85;;;;;;;;;;5098210;28;20229;-79
2022/08/29 10:25:58;;;;;;;3.85;3.20;;;;;;;;;;5095983;28;20199;-79
2022/08/29 10:28:30;;;;;;;7.60;3.30;;;;;;;;;;5097133;28;20240;-79
2022/08/29 10:30:59;;;;;;;6.43;3.25;;;;;;;;;;5092195;28;20285;-79
2022/08/29 10:33:29;;;;;;;7.45;3.22;;;;;;;;;;5098200;28;20289;-79
2022/08/29 10:35:59;;;;;;;6.18;3.03;;;;;;;;;;5111980;28;20753;-79
2022/08/29 10:38:36;;;;;;;5.25;3.20;;;;;;;;;;5093638;28;20249;-79
2022/08/29 10:41:08;;;;;;;6.22;3.22;;;;;;;;;;5095360;28;20265;-79
2022/08/29 10:43:39;;;;;;;4.38;3.15;;;;;;;;;;5093048;28;20230;-79
2022/08/29 10:46:10;;;;;;;4.60;3.17;;;;;;;;;;5087896;28;20236;-79
2022/08/29 10:48:38;;;;;;;5.30;3.35;;;;;;;;;;5093915;28;20322;-78
2022/08/29 10:51:12;;;;;;;8.27;3.30;;;;;;;;;;5088614;28;20310;-78
2022/08/29 10:53:42;;;;;;;4.93;3.30;;;;;;;;;;5085035;28;20207;-78
2022/08/29 10:56:16;;;;;;;5.07;3.58;;;;;;;;;;5085008;28;20740;-78
2022/08/29 10:58:49;;;;;;;4.03;3.08;;;;;;;;;;5087772;28;20317;-78
2022/08/29 11:01:20;;;;;;;5.15;3.05;;;;;;;;;;5088895;28;20277;-78
2022/08/29 11:03:51;;;;;;;4.80;3.63;;;;;;;;;;5083628;28;20213;-79
2022/08/29 11:18:37;;;;;;;9.82;3.47;;;;;;;;;;5114891;28;20196;-77
2022/08/29 11:21:08;;;;;;;4.35;3.45;;;;;;;;;;5081460;28;20206;-79
2022/08/29 11:23:39;;;;;;;5.47;3.80;;;;;;;;;;5089111;28;20207;-79
2022/08/29 11:26:09;;;;;;;5.45;4.20;;;;;;;;;;5090234;28;20730;-79
2022/08/29 11:28:39;;;;;;;5.97;3.63;;;;;;;;;;5091600;28;20233;-79
2022/08/29 11:31:11;;;;;;;6.68;3.72;;;;;;;;;;5088680;28;20198;-79
2022/08/29 11:33:41;;;;;;;3.90;3.28;;;;;;;;;;5094578;28;20198;-79
2022/08/29 11:36:29;;;;;;;4.15;3.60;;;;;;;;;;5092453;28;20194;-79
2022/08/29 11:39:08;;;;;;;4.60;3.65;;;;;;;;;;5091161;28;20305;-79
2022/08/29 11:41:37;;;;;;;4.93;3.60;;;;;;;;;;5092330;28;20231;-79
2022/08/29 11:44:09;;;;;;;6.30;4.28;;;;;;;;;;5091691;28;20226;-79
2022/08/29 11:46:41;;;;;;;4.35;3.88;;;;;;;;;;5093174;28;20297;-79
2022/08/29 11:49:32;;;;;;;3.88;3.50;;;;;;;;;;5091235;28;20669;-79
2022/08/29 11:52:14;;;;;;;5.03;3.95;;;;;;;;;;5093276;28;20661;-79
2022/08/29 11:54:53;;;;;;;6.18;3.45;;;;;;;;;;5091937;28;20329;-79
2022/08/29 11:57:47;;;;;;;5.97;3.97;;;;;;;;;;5085955;28;20203;-79
2022/08/29 12:00:25;;;;;;;4.40;3.65;;;;;;;;;;5048113;28;20274;-79
2022/08/29 12:02:53;;;;;;;4.55;3.67;;;;;;;;;;5098740;28;20241;-79
2022/08/29 12:05:54;;;;;;;4.30;3.90;;;;;;;;;;5089752;28;20201;-79
2022/08/29 12:08:30;;;;;;;6.45;3.63;;;;;;;;;;5005703;28;20287;-79
2022/08/29 12:11:19;;;;;;;4.38;3.85;;;;;;;;;;5014010;28;20204;-77
2022/08/29 12:14:12;;;;;;;4.07;3.38;;;;;;;;;;5012298;28;20566;-78
2022/08/29 12:17:11;;;;;;;5.57;3.65;;;;;;;;;;5011526;28;20216;-78
2022/08/29 12:19:53;;;;;;;5.00;3.53;;;;;;;;;;5011151;28;20232;-78
2022/08/29 12:22:40;;;;;;;4.13;3.72;;;;;;;;;;5011389;28;20216;-78
2022/08/29 12:25:27;;;;;;;4.03;3.63;;;;;;;;;;4995067;28;20677;-78
2022/08/29 12:28:01;;;;;;;4.65;3.42;;;;;;;;;;5007427;28;20201;-78
2022/08/29 12:30:29;;;;;;;5.32;3.70;;;;;;;;;;5011899;28;20237;-78
2022/08/29 12:33:03;;;;;;;4.85;3.78;;;;;;;;;;5009925;28;20235;-78
2022/08/29 12:35:44;;;;;;;4.10;3.63;;;;;;;;;;5006198;28;20243;-78
2022/08/29 12:38:18;;;;;;;7.85;3.95;;;;;;;;;;5004727;28;20308;-78
2022/08/29 12:40:52;;;;;;;4.25;3.38;;;;;;;;;;5082365;28;20234;-77
2022/08/29 12:43:34;;;;;;;6.88;3.70;;;;;;;;;;5086585;28;20225;-77
2022/08/29 12:46:04;;;;;;;6.57;3.72;;;;;;;;;;5088213;28;20218;-77
2022/08/29 12:48:34;;;;;;;4.40;3.95;;;;;;;;;;5092220;28;20281;-77
2022/08/29 12:51:03;;;;;;;6.80;3.83;;;;;;;;;;5085153;28;20213;-77
2022/08/29 12:53:33;;;;;;;6.45;3.60;;;;;;;;;;5092178;28;20199;-77
2022/08/29 12:56:02;;;;;;;5.03;3.80;;;;;;;;;;5100750;28;20206;-77
2022/08/29 12:58:51;;;;;;;5.28;3.45;;;;;;;;;;5091297;28;20313;-77
2022/08/29 13:01:24;;;;;;;6.40;4.20;;;;;;;;;;5092029;28;20213;-77
2022/08/29 13:03:59;;;;;;;5.93;4.00;;;;;;;;;;5096378;28;20246;-78
2022/08/29 13:06:27;;;;;;;6.80;3.78;;;;;;;;;;5096543;28;20198;-78
2022/08/29 13:08:54;;;;;;;6.15;4.88;;;;;;;;;;5091361;28;20617;-78
2022/08/29 13:11:23;;;;;;;5.80;3.95;;;;;;;;;;5090024;28;20286;-78
2022/08/29 13:13:51;;;;;;;4.80;4.40;;;;;;;;;;5094194;28;20634;-78
2022/08/29 13:16:30;;;;;;;4.70;4.30;;;;;;;;;;5088706;28;20233;-79
2022/08/29 13:18:57;;;;;;;5.95;4.30;;;;;;;;;;5084173;28;20653;-78
2022/08/29 13:21:28;;;;;;;5.53;4.55;;;;;;;;;;5094449;28;20230;-78
2022/08/29 13:24:01;;;;;;;5.00;4.28;;;;;;;;;;5097736;28;20285;-78
2022/08/29 13:26:31;;;;;;;7.68;4.70;;;;;;;;;;5102475;28;20278;-78
2022/08/29 13:29:00;;;;;;;5.47;4.32;;;;;;;;;;5101243;28;20212;-78
2022/08/29 13:31:31;;;;;;;5.45;4.30;;;;;;;;;;5104390;28;20213;-79
2022/08/29 13:34:19;;;;;;;4.10;3.80;;;;;;;;;;5100115;28;20206;-78
2022/08/29 13:37:06;;;;;;;4.93;4.30;;;;;;;;;;5092472;28;20236;-79
2022/08/29 13:39:42;;;;;;;4.70;4.28;;;;;;;;;;5084308;28;20217;-79
2022/08/29 13:42:17;;;;;;;5.35;4.13;;;;;;;;;;5087104;28;20227;-79
2022/08/29 13:45:01;;;;;;;4.68;4.28;;;;;;;;;;5089915;28;20298;-79
2022/08/29 13:47:31;;;;;;;4.30;3.90;;;;;;;;;;5092835;28;20682;-78
2022/08/29 13:49:59;;;;;;;4.75;4.28;;;;;;;;;;5088622;28;20805;-78
2022/08/29 13:52:27;;;;;;;4.28;3.90;;;;;;;;;;5099485;28;20223;-78
2022/08/29 13:54:54;;;;;;;4.20;3.70;;;;;;;;;;5093906;28;20297;-78
2022/08/29 13:57:23;;;;;;;4.63;4.07;;;;;;;;;;5093510;28;20206;-78
2022/08/29 13:59:51;;;;;;;6.13;4.47;;;;;;;;;;5088119;28;20758;-78
2022/08/29 14:02:18;;;;;;;5.75;4.30;;;;;;;;;;5094831;28;20298;-78
2022/08/29 14:04:47;;;;;;;6.38;4.03;;;;;;;;;;5101085;28;20233;-78
2022/08/29 14:07:17;;;;;;;4.78;3.83;;;;;;;;;;5099758;28;20231;-78
2022/08/29 14:09:45;;;;;;;5.22;4.05;;;;;;;;;;5081696;28;20237;-78
2022/08/29 14:12:13;;;;;;;4.78;4.28;;;;;;;;;;5100761;28;20228;-78
2022/08/29 14:14:40;;;;;;;5.50;4.03;;;;;;;;;;5097409;28;20246;-78
2022/08/29 14:17:07;;;;;;;4.35;3.95;;;;;;;;;;5097398;28;20229;-78
2022/08/29 14:19:35;;;;;;;4.70;4.20;;;;;;;;;;5105306;28;20217;-78
2022/08/29 14:22:03;;;;;;;4.00;3.70;;;;;;;;;;5087098;28;20198;-78
2022/08/29 14:24:32;;;;;;;4.30;3.88;;;;;;;;;;5092692;28;20681;-78
2022/08/29 14:27:00;;;;;;;3.85;3.55;;;;;;;;;;5104186;28;20241;-78
2022/08/29 14:29:28;;;;;;;4.65;3.90;;;;;;;;;;5107019;28;20318;-78
2022/08/29 14:31:55;;;;;;;4.35;4.00;;;;;;;;;;5092926;28;20334;-78
2022/08/29 14:34:22;;;;;;;4.88;3.95;;;;;;;;;;5098390;28;20769;-78
2022/08/29 14:36:50;;;;;;;5.53;3.90;;;;;;;;;;5098224;28;20238;-78
2022/08/29 14:39:18;;;;;;;6.22;3.92;;;;;;;;;;5098226;28;20213;-79
2022/08/29 14:41:45;;;;;;;6.40;4.15;;;;;;;;;;5092853;28;20274;-78
2022/08/29 14:44:13;;;;;;;6.25;4.20;;;;;;;;;;5092468;28;20285;-79
2022/08/29 14:46:40;;;;;;;4.95;4.18;;;;;;;;;;5105566;28;20230;-79
2022/08/29 14:49:07;;;;;;;5.97;4.20;;;;;;;;;;5099822;28;20677;-78
2022/08/29 14:51:34;;;;;;;4.78;4.28;;;;;;;;;;5097552;28;20207;-79
2022/08/29 14:54:01;;;;;;;5.30;3.80;;;;;;;;;;5098311;28;20286;-79
2022/08/29 14:56:31;;;;;;;5.72;4.40;;;;;;;;;;5090903;28;20285;-78
2022/08/29 14:58:59;;;;;;;4.88;3.88;;;;;;;;;;5095420;28;20334;-78
2022/08/29 15:01:27;;;;;;;5.88;3.67;;;;;;;;;;5099271;28;20209;-78
2022/08/29 15:03:54;;;;;;;4.18;3.78;;;;;;;;;;5084799;28;20271;-78
2022/08/29 15:06:21;;;;;;;4.65;3.70;;;;;;;;;;5091488;28;20632;-79
2022/08/29 15:08:48;;;;;;;7.07;3.70;;;;;;;;;;5095004;28;20276;-79
2022/08/29 15:11:15;;;;;;;4.65;3.75;;;;;;;;;;5110125;28;20284;-79